Time;durP1;ratioP1;P1;durP2;ratioP2;P2;SDS_P1;SDS_P2;PMS_P1;PMS_P2;Temp;Humidity;BMP_temperature;BMP_pressure;BME280_temperature;BME280_humidity;BME280_pressure;Samples;Min_cycle;Max_cycle;Signal;HPM_P1;HPM_P2
2021/10/05 00:00:07;;;;;;;6.75;6.15;;;11.60;99.90;;;;;;4986516;28;20035;-76
2021/10/05 00:02:33;;;;;;;6.95;6.32;;;11.50;99.90;;;;;;4987738;28;20046;-75
2021/10/05 00:04:58;;;;;;;7.20;6.50;;;11.60;99.90;;;;;;5010584;28;20157;-77
2021/10/05 00:07:24;;;;;;;7.47;6.78;;;11.60;99.90;;;;;;4995334;28;20022;-77
2021/10/05 00:09:49;;;;;;;7.80;7.03;;;11.60;99.90;;;;;;4983040;28;20393;-76
2021/10/05 00:12:15;;;;;;;7.47;6.68;;;11.50;99.90;;;;;;4984524;28;20031;-76
2021/10/05 00:14:41;;;;;;;8.50;7.65;;;11.60;99.90;;;;;;4984843;28;20023;-77
2021/10/05 00:17:07;;;;;;;8.23;7.35;;;11.70;99.90;;;;;;4990995;28;20037;-76
2021/10/05 00:19:32;;;;;;;8.85;6.50;;;11.70;99.90;;;;;;4974716;28;20485;-76
2021/10/05 00:21:58;;;;;;;8.18;7.32;;;11.80;99.90;;;;;;4964823;28;20123;-76
2021/10/05 00:24:24;;;;;;;8.68;7.70;;;11.90;99.90;;;;;;4962092;28;20077;-76
2021/10/05 00:26:49;;;;;;;8.88;7.60;;;11.80;99.90;;;;;;4964656;28;20506;-75
2021/10/05 00:29:15;;;;;;;7.78;6.65;;;11.70;99.90;;;;;;4967809;28;20482;-75
2021/10/05 00:31:40;;;;;;;7.47;6.22;;;11.80;99.90;;;;;;4965248;28;20389;-75
2021/10/05 00:34:06;;;;;;;7.57;6.88;;;11.80;99.90;;;;;;4961226;28;20085;-75
2021/10/05 00:36:31;;;;;;;7.88;7.18;;;11.80;99.90;;;;;;4966107;28;20035;-75
2021/10/05 00:38:57;;;;;;;7.35;6.63;;;11.90;99.90;;;;;;4968818;28;20027;-75
2021/10/05 00:41:23;;;;;;;10.93;7.10;;;11.80;99.90;;;;;;4964820;28;20023;-77
2021/10/05 00:43:48;;;;;;;7.90;7.05;;;11.70;99.90;;;;;;4958480;28;20019;-76
2021/10/05 00:46:15;;;;;;;8.77;7.90;;;11.60;99.90;;;;;;4965988;28;20027;-77
2021/10/05 00:48:41;;;;;;;8.65;7.53;;;11.70;99.90;;;;;;4962051;28;20498;-77
2021/10/05 00:51:06;;;;;;;8.60;7.70;;;11.70;99.90;;;;;;4964690;28;20024;-77
2021/10/05 00:53:32;;;;;;;11.55;7.50;;;11.70;99.90;;;;;;4968679;28;20031;-76
2021/10/05 00:55:58;;;;;;;8.85;7.30;;;11.80;99.90;;;;;;4966178;28;20027;-77
2021/10/05 00:58:23;;;;;;;7.85;7.15;;;11.70;99.90;;;;;;4962647;28;20031;-77
2021/10/05 01:00:49;;;;;;;7.93;7.13;;;11.70;99.90;;;;;;4964661;28;20398;-77
2021/10/05 01:03:14;;;;;;;8.20;6.90;;;11.70;99.90;;;;;;4968609;28;20062;-77
2021/10/05 01:05:40;;;;;;;7.40;6.53;;;11.80;99.90;;;;;;4955314;28;20505;-77
2021/10/05 01:08:06;;;;;;;7.65;6.70;;;11.80;99.90;;;;;;4968508;28;20090;-77
2021/10/05 01:10:32;;;;;;;7.60;6.90;;;11.90;99.90;;;;;;4964680;28;20540;-77
2021/10/05 01:12:57;;;;;;;7.90;6.55;;;11.90;99.90;;;;;;4961725;28;20031;-77
2021/10/05 01:15:27;;;;;;;6.82;6.13;;;11.90;99.90;;;;;;4963878;28;20027;-77
2021/10/05 01:17:53;;;;;;;7.43;6.70;;;11.90;99.90;;;;;;4968351;28;20046;-76
2021/10/05 01:20:20;;;;;;;8.30;7.05;;;11.90;99.90;;;;;;4955158;29;20031;-76
2021/10/05 01:22:45;;;;;;;7.50;6.78;;;11.90;99.90;;;;;;4957208;28;20034;-77
2021/10/05 01:25:14;;;;;;;7.97;7.18;;;11.90;99.90;;;;;;4964702;28;20023;-76
2021/10/05 01:27:52;;;;;;;8.20;7.35;;;11.90;99.90;;;;;;4968056;28;20637;-77
2021/10/05 01:30:19;;;;;;;8.40;7.32;;;11.90;99.90;;;;;;4966884;28;20054;-77
2021/10/05 01:32:45;;;;;;;7.57;6.47;;;12.00;99.90;;;;;;4961251;28;20030;-75
2021/10/05 01:35:11;;;;;;;8.30;7.50;;;12.00;99.90;;;;;;4962352;28;20086;-75
2021/10/05 01:37:37;;;;;;;8.13;7.32;;;11.90;99.90;;;;;;4967135;28;20062;-75
2021/10/05 01:40:07;;;;;;;8.43;7.53;;;11.90;99.90;;;;;;4965316;28;20026;-76
2021/10/05 01:42:33;;;;;;;8.98;7.75;;;11.80;99.90;;;;;;4960949;28;20110;-77
2021/10/05 01:44:58;;;;;;;9.88;8.00;;;11.80;99.90;;;;;;4972213;28;20137;-77
2021/10/05 01:47:24;;;;;;;8.75;7.82;;;11.80;99.90;;;;;;4959899;28;20023;-75
2021/10/05 01:49:49;;;;;;;8.55;7.43;;;11.80;99.90;;;;;;4973338;28;20069;-77
2021/10/05 01:52:15;;;;;;;10.90;8.50;;;11.80;99.90;;;;;;4973578;28;20030;-76
2021/10/05 01:54:41;;;;;;;12.55;8.70;;;11.70;99.90;;;;;;4973845;28;20039;-76
2021/10/05 01:57:07;;;;;;;9.65;8.40;;;11.60;99.90;;;;;;4966644;28;20024;-76
2021/10/05 01:59:32;;;;;;;13.68;9.85;;;11.70;99.90;;;;;;4966959;28;20030;-76
2021/10/05 02:01:58;;;;;;;10.48;9.35;;;11.70;99.90;;;;;;4960720;28;20481;-76
2021/10/05 02:04:23;;;;;;;12.50;10.30;;;11.60;99.90;;;;;;4973633;28;20113;-76
2021/10/05 02:06:49;;;;;;;12.30;10.15;;;11.50;99.90;;;;;;4960574;28;20024;-76
2021/10/05 02:09:14;;;;;;;13.40;10.63;;;11.50;99.90;;;;;;4961390;28;20023;-76
2021/10/05 02:11:40;;;;;;;14.57;11.38;;;11.40;99.90;;;;;;4967161;28;20023;-76
2021/10/05 02:14:06;;;;;;;12.35;10.95;;;11.30;99.90;;;;;;4966296;28;20058;-75
2021/10/05 02:16:33;;;;;;;14.75;12.13;;;11.50;99.90;;;;;;4959117;28;20482;-76
2021/10/05 02:19:00;;;;;;;14.60;11.73;;;11.50;99.90;;;;;;4961632;28;20019;-76
2021/10/05 02:21:25;;;;;;;12.57;10.25;;;11.40;99.90;;;;;;4965717;28;20019;-78
2021/10/05 02:26:35;;;;;;;14.88;11.80;;;11.50;99.90;;;;;;4972612;28;20041;-77
2021/10/05 02:29:02;;;;;;;17.83;12.73;;;11.60;99.90;;;;;;4960328;28;20027;-75
2021/10/05 02:31:27;;;;;;;16.75;12.90;;;11.60;99.90;;;;;;4964020;28;20023;-75
2021/10/05 02:33:53;;;;;;;20.60;14.05;;;11.30;99.90;;;;;;4968466;28;20037;-77
2021/10/05 02:36:19;;;;;;;19.88;13.77;;;11.30;99.90;;;;;;4973155;28;20485;-77
2021/10/05 02:38:44;;;;;;;19.58;13.27;;;11.30;99.90;;;;;;4959237;28;20023;-76
2021/10/05 02:41:10;;;;;;;23.70;14.45;;;11.40;99.90;;;;;;4952509;29;20121;-76
2021/10/05 02:43:35;;;;;;;20.60;14.35;;;11.40;99.90;;;;;;4953517;28;20039;-78
2021/10/05 02:46:01;;;;;;;21.02;14.35;;;11.30;99.90;;;;;;4961654;28;20027;-78
2021/10/05 02:48:27;;;;;;;20.27;13.95;;;11.30;99.90;;;;;;4960175;28;20034;-75
2021/10/05 02:50:52;;;;;;;22.73;14.65;;;11.40;99.90;;;;;;4971920;28;20508;-74
2021/10/05 02:53:18;;;;;;;22.30;16.23;;;11.40;99.90;;;;;;4958260;28;20097;-75
2021/10/05 02:55:44;;;;;;;28.30;17.25;;;11.40;99.90;;;;;;4953655;29;20042;-75
2021/10/05 02:58:09;;;;;;;25.88;16.27;;;11.40;99.90;;;;;;4967246;28;20027;-75
2021/10/05 03:00:35;;;;;;;22.17;15.23;;;11.40;99.90;;;;;;4962965;28;20050;-74
2021/10/05 03:03:01;;;;;;;21.95;15.60;;;11.50;99.90;;;;;;4968675;28;20074;-74
2021/10/05 03:05:27;;;;;;;21.75;15.63;;;11.60;99.90;;;;;;4971692;28;20181;-74
2021/10/05 03:07:52;;;;;;;22.30;16.40;;;11.60;99.90;;;;;;4972806;28;20031;-74
2021/10/05 03:10:18;;;;;;;21.70;16.15;;;11.60;99.90;;;;;;4964419;28;20035;-75
2021/10/05 03:12:44;;;;;;;22.20;15.82;;;11.40;99.90;;;;;;4964936;28;20130;-75
2021/10/05 03:15:09;;;;;;;24.48;17.23;;;11.50;99.90;;;;;;4961882;28;20476;-75
2021/10/05 03:17:35;;;;;;;33.83;19.42;;;11.50;99.90;;;;;;4959802;28;20477;-74
2021/10/05 03:20:00;;;;;;;23.15;17.13;;;11.50;99.90;;;;;;4972734;28;20039;-73
2021/10/05 03:22:26;;;;;;;29.63;17.90;;;11.50;99.90;;;;;;4969224;28;20085;-73
2021/10/05 03:24:52;;;;;;;30.23;18.20;;;11.50;99.90;;;;;;4952172;29;20450;-73
2021/10/05 03:27:17;;;;;;;29.50;17.58;;;11.50;99.90;;;;;;4968004;28;20026;-74
2021/10/05 03:29:43;;;;;;;25.23;16.55;;;11.60;99.90;;;;;;4963253;28;20027;-74
2021/10/05 03:32:09;;;;;;;25.35;17.13;;;11.60;99.90;;;;;;4966129;28;20061;-74
2021/10/05 03:34:34;;;;;;;30.15;17.63;;;11.70;99.90;;;;;;4960204;28;20034;-74
2021/10/05 03:37:00;;;;;;;24.00;16.15;;;11.70;99.90;;;;;;4971256;28;20047;-74
2021/10/05 03:39:26;;;;;;;29.33;17.85;;;11.60;99.90;;;;;;4972723;28;20481;-74
2021/10/05 03:41:51;;;;;;;26.63;16.50;;;11.70;99.90;;;;;;4971202;28;20019;-74
2021/10/05 03:44:17;;;;;;;33.22;18.33;;;11.70;99.90;;;;;;4979587;28;20026;-74
2021/10/05 03:46:43;;;;;;;31.35;18.50;;;11.60;99.90;;;;;;4975706;28;20031;-73
2021/10/05 03:49:09;;;;;;;35.88;19.27;;;11.50;99.90;;;;;;4959479;28;20027;-73
2021/10/05 03:51:34;;;;;;;33.78;18.80;;;11.50;99.90;;;;;;4970902;28;20038;-72
2021/10/05 03:54:00;;;;;;;34.45;20.13;;;11.50;99.90;;;;;;4951935;29;20098;-74
2021/10/05 03:56:25;;;;;;;38.65;21.65;;;11.70;99.90;;;;;;4953791;28;20139;-74
2021/10/05 03:58:51;;;;;;;26.38;17.52;;;11.40;99.90;;;;;;4965016;28;20027;-74
2021/10/05 04:01:16;;;;;;;27.10;18.13;;;11.50;99.90;;;;;;4955926;28;20027;-75
2021/10/05 04:03:42;;;;;;;28.95;19.70;;;11.50;99.90;;;;;;4967806;28;20027;-74
2021/10/05 04:06:09;;;;;;;36.50;20.77;;;11.60;99.90;;;;;;4969348;28;20027;-75
2021/10/05 04:08:35;;;;;;;37.20;20.88;;;11.50;99.90;;;;;;4963531;28;20477;-75
2021/10/05 04:11:01;;;;;;;39.72;21.77;;;11.50;99.90;;;;;;4961272;28;20496;-75
2021/10/05 04:13:27;;;;;;;35.70;21.25;;;11.30;99.90;;;;;;4975747;28;20031;-75
2021/10/05 04:15:52;;;;;;;38.88;21.50;;;11.30;99.90;;;;;;4962820;28;20446;-75
2021/10/05 04:18:18;;;;;;;28.48;17.83;;;11.40;99.90;;;;;;4968650;28;20031;-75
2021/10/05 04:20:44;;;;;;;28.08;18.60;;;11.60;99.90;;;;;;4968985;28;20023;-75
2021/10/05 04:23:09;;;;;;;31.17;18.88;;;11.60;99.90;;;;;;4963045;28;20027;-75
2021/10/05 04:25:35;;;;;;;23.25;15.93;;;11.70;99.90;;;;;;4961320;28;20027;-75
2021/10/05 04:28:00;;;;;;;26.95;16.45;;;11.70;99.90;;;;;;4968882;28;20027;-74
2021/10/05 04:30:26;;;;;;;20.95;14.63;;;11.60;99.90;;;;;;4969046;28;20038;-74
2021/10/05 04:32:51;;;;;;;21.13;15.20;;;11.70;99.90;;;;;;4961059;28;20113;-74
2021/10/05 04:35:17;;;;;;;28.15;17.25;;;11.60;99.90;;;;;;4975438;28;20038;-74
2021/10/05 04:37:42;;;;;;;28.52;16.83;;;11.50;99.90;;;;;;4956029;28;20043;-74
2021/10/05 04:40:08;;;;;;;31.35;18.52;;;11.50;99.90;;;;;;4968569;28;20026;-74
2021/10/05 04:42:34;;;;;;;22.80;15.75;;;11.50;99.90;;;;;;4961935;28;20457;-74
2021/10/05 04:45:00;;;;;;;30.02;17.92;;;11.50;99.90;;;;;;4973586;28;20026;-74
2021/10/05 04:47:26;;;;;;;38.05;21.35;;;11.60;99.90;;;;;;4955896;29;20038;-75
2021/10/05 04:49:51;;;;;;;25.60;16.83;;;11.50;99.90;;;;;;4967728;28;20082;-75
2021/10/05 04:52:17;;;;;;;33.47;19.63;;;11.50;99.90;;;;;;4961967;28;20042;-75
2021/10/05 04:54:42;;;;;;;28.35;18.00;;;11.60;99.90;;;;;;4962266;28;20032;-74
2021/10/05 04:57:09;;;;;;;28.27;16.98;;;11.60;99.90;;;;;;4967281;28;20454;-75
2021/10/05 04:59:34;;;;;;;19.23;14.73;;;11.70;99.90;;;;;;4955530;29;20041;-74
2021/10/05 05:02:00;;;;;;;22.27;14.57;;;11.60;99.90;;;;;;4968304;28;20099;-75
2021/10/05 05:04:25;;;;;;;19.60;13.65;;;11.60;99.90;;;;;;4968121;28;20146;-75
2021/10/05 05:06:51;;;;;;;17.33;13.00;;;11.60;99.90;;;;;;4974650;28;20023;-74
2021/10/05 05:09:17;;;;;;;16.95;12.75;;;11.50;99.90;;;;;;4961407;28;20027;-74
2021/10/05 05:11:43;;;;;;;14.45;12.35;;;11.50;99.90;;;;;;4967089;28;20495;-74
2021/10/05 05:14:10;;;;;;;19.92;12.48;;;11.50;99.90;;;;;;4967526;28;20034;-77
2021/10/05 05:16:37;;;;;;;18.42;11.77;;;11.40;99.90;;;;;;4956039;28;20222;-75
2021/10/05 05:19:03;;;;;;;13.88;9.75;;;11.20;99.90;;;;;;4955261;29;20035;-74
2021/10/05 05:21:29;;;;;;;18.00;11.68;;;11.20;99.90;;;;;;4954296;28;20061;-74
2021/10/05 05:23:55;;;;;;;12.77;9.60;;;11.20;99.90;;;;;;4954204;29;20151;-74
2021/10/05 05:26:21;;;;;;;17.67;11.18;;;11.20;99.90;;;;;;4955450;28;20162;-74
2021/10/05 05:28:46;;;;;;;12.57;9.75;;;11.30;99.90;;;;;;4967680;28;20031;-74
2021/10/05 05:31:12;;;;;;;13.90;10.70;;;11.30;99.90;;;;;;4954956;28;20031;-74
2021/10/05 05:33:37;;;;;;;16.45;12.15;;;11.30;99.90;;;;;;4966248;28;20034;-74
2021/10/05 05:36:03;;;;;;;12.60;9.52;;;11.30;99.90;;;;;;4967816;28;20118;-74
2021/10/05 05:38:28;;;;;;;17.15;11.45;;;11.30;99.90;;;;;;4967548;28;20030;-74
2021/10/05 05:40:54;;;;;;;13.25;9.95;;;11.30;99.90;;;;;;4972474;28;20058;-74
2021/10/05 05:43:20;;;;;;;12.82;9.93;;;11.40;99.90;;;;;;4962014;28;20031;-74
2021/10/05 05:45:46;;;;;;;14.38;10.52;;;11.30;99.90;;;;;;4980770;28;20055;-74
2021/10/05 05:48:12;;;;;;;13.98;9.95;;;11.30;99.90;;;;;;4967285;28;20033;-74
2021/10/05 05:50:38;;;;;;;13.90;9.52;;;11.40;99.90;;;;;;4967639;28;20027;-74
2021/10/05 05:53:03;;;;;;;10.02;8.85;;;11.30;99.90;;;;;;4960374;28;20035;-74
2021/10/05 05:55:29;;;;;;;11.55;8.70;;;11.30;99.90;;;;;;4959896;28;20034;-75
2021/10/05 05:57:55;;;;;;;17.17;9.90;;;11.40;99.90;;;;;;4966087;28;20499;-74
2021/10/05 06:00:22;;;;;;;12.50;9.18;;;11.30;99.90;;;;;;4963040;28;20018;-74
2021/10/05 06:02:48;;;;;;;11.55;9.73;;;11.30;99.90;;;;;;4966222;28;20110;-74
2021/10/05 06:05:14;;;;;;;12.15;9.45;;;11.30;99.90;;;;;;4965743;28;20447;-74
2021/10/05 06:07:39;;;;;;;12.07;9.68;;;11.20;99.90;;;;;;4972281;28;20517;-74
2021/10/05 06:10:06;;;;;;;12.55;9.23;;;11.30;99.90;;;;;;4952169;28;20131;-74
2021/10/05 06:12:40;;;;;;;9.68;7.93;;;11.30;99.90;;;;;;4965539;28;20047;-74
2021/10/05 06:15:11;;;;;;;14.80;8.98;;;11.30;99.90;;;;;;4959421;28;20074;-75
2021/10/05 06:17:41;;;;;;;7.28;6.53;;;11.30;99.90;;;;;;4958131;28;20046;-75
2021/10/05 06:20:12;;;;;;;10.00;7.75;;;11.30;99.90;;;;;;4952879;29;20027;-75
2021/10/05 06:22:39;;;;;;;9.25;7.72;;;11.20;99.90;;;;;;4968804;28;20086;-74
2021/10/05 06:25:09;;;;;;;8.85;7.22;;;11.20;99.90;;;;;;4963252;28;20029;-75
2021/10/05 06:27:34;;;;;;;8.05;7.07;;;11.20;99.90;;;;;;4968481;28;20038;-74
2021/10/05 06:30:00;;;;;;;7.88;5.97;;;11.20;99.90;;;;;;4973328;28;20031;-74
2021/10/05 06:32:26;;;;;;;10.00;6.22;;;11.20;99.90;;;;;;4959921;28;20031;-74
2021/10/05 06:34:52;;;;;;;10.15;6.65;;;11.20;99.90;;;;;;4964512;28;20028;-74
2021/10/05 06:37:18;;;;;;;7.47;6.28;;;11.30;99.90;;;;;;4953834;29;20047;-74
2021/10/05 06:39:44;;;;;;;10.80;6.75;;;11.20;99.90;;;;;;4962489;28;20116;-74
2021/10/05 06:42:09;;;;;;;5.93;4.97;;;11.10;99.90;;;;;;4972863;28;20535;-75
2021/10/05 06:44:35;;;;;;;8.23;6.28;;;11.10;99.90;;;;;;4982922;28;20018;-75
2021/10/05 06:47:00;;;;;;;9.65;7.10;;;11.20;99.90;;;;;;4972995;28;20024;-74
2021/10/05 06:49:26;;;;;;;9.77;7.32;;;11.20;99.90;;;;;;4952419;29;20030;-74
2021/10/05 06:51:52;;;;;;;10.38;7.57;;;11.30;99.90;;;;;;4968057;28;20118;-74
2021/10/05 06:54:17;;;;;;;7.50;5.90;;;11.10;99.90;;;;;;4973082;28;20019;-74
2021/10/05 06:56:43;;;;;;;9.07;6.50;;;11.10;99.90;;;;;;4972895;28;20421;-74
2021/10/05 06:59:08;;;;;;;7.45;5.40;;;11.20;99.90;;;;;;4963770;28;20605;-74
2021/10/05 07:01:34;;;;;;;6.15;5.22;;;11.20;99.90;;;;;;4953410;29;20039;-73
2021/10/05 07:03:59;;;;;;;17.45;8.38;;;11.20;99.90;;;;;;4953500;28;20032;-73
2021/10/05 07:06:25;;;;;;;7.22;5.13;;;11.30;99.90;;;;;;4953558;29;20064;-73
2021/10/05 07:08:51;;;;;;;5.65;3.72;;;11.20;99.90;;;;;;4953579;29;20019;-73
2021/10/05 07:11:17;;;;;;;5.35;4.80;;;11.20;99.90;;;;;;4953351;29;20028;-74
2021/10/05 07:13:43;;;;;;;5.45;4.88;;;11.30;99.90;;;;;;4962086;28;20454;-74
2021/10/05 07:16:09;;;;;;;6.88;5.03;;;11.30;99.90;;;;;;4957565;28;20019;-74
2021/10/05 07:18:35;;;;;;;13.15;7.32;;;11.30;99.90;;;;;;4952254;28;20038;-74
2021/10/05 07:21:01;;;;;;;6.30;4.40;;;11.30;99.90;;;;;;4956586;28;20031;-74
2021/10/05 07:23:27;;;;;;;4.30;3.90;;;11.40;99.90;;;;;;4971863;28;20023;-74
2021/10/05 07:25:53;;;;;;;4.80;3.88;;;11.40;99.90;;;;;;4968365;28;20025;-74
2021/10/05 07:28:18;;;;;;;8.55;3.60;;;11.50;99.90;;;;;;4970684;28;20023;-74
2021/10/05 07:30:46;;;;;;;5.65;3.25;;;11.60;99.90;;;;;;4965924;28;20082;-74
2021/10/05 07:33:12;;;;;;;3.58;3.28;;;11.60;99.90;;;;;;4963010;28;20026;-74
2021/10/05 07:35:37;;;;;;;3.95;2.75;;;11.50;99.90;;;;;;4970725;28;20038;-74
2021/10/05 07:38:03;;;;;;;3.67;3.28;;;11.40;99.90;;;;;;4967266;28;20709;-74
2021/10/05 07:40:29;;;;;;;3.70;2.78;;;11.50;99.90;;;;;;4956859;28;20031;-74
2021/10/05 07:42:57;;;;;;;3.17;2.75;;;11.50;99.90;;;;;;4965760;28;20019;-74
2021/10/05 07:45:23;;;;;;;3.22;2.80;;;11.50;99.90;;;;;;4979128;28;20023;-74
2021/10/05 07:47:49;;;;;;;3.88;2.80;;;11.40;99.90;;;;;;4956740;29;20386;-74
2021/10/05 07:50:15;;;;;;;2.55;2.28;;;11.40;99.90;;;;;;4972656;28;20023;-74
2021/10/05 07:52:41;;;;;;;2.58;2.20;;;11.50;99.90;;;;;;4966334;28;20062;-74
2021/10/05 07:55:07;;;;;;;2.47;2.28;;;11.50;99.90;;;;;;4956740;29;20031;-74
2021/10/05 07:57:32;;;;;;;2.58;2.35;;;11.60;99.90;;;;;;4956696;28;20027;-74
2021/10/05 07:59:58;;;;;;;2.25;2.00;;;11.60;99.90;;;;;;4956535;28;20027;-74
2021/10/05 08:02:24;;;;;;;2.72;2.40;;;11.60;99.90;;;;;;4956786;29;20090;-74
2021/10/05 08:04:50;;;;;;;3.92;3.53;;;11.70;99.90;;;;;;4957969;28;20347;-74
2021/10/05 08:07:15;;;;;;;2.50;2.30;;;11.70;99.90;;;;;;4955742;29;20019;-74
2021/10/05 08:09:41;;;;;;;2.30;2.10;;;11.60;99.90;;;;;;4956384;28;20042;-74
2021/10/05 08:12:06;;;;;;;2.35;2.05;;;11.50;99.90;;;;;;4956134;29;20035;-74
2021/10/05 08:14:32;;;;;;;2.17;2.00;;;11.50;99.90;;;;;;4956299;29;20106;-74
2021/10/05 08:16:59;;;;;;;5.47;3.47;;;11.50;99.90;;;;;;4954732;28;20027;-73
2021/10/05 08:19:25;;;;;;;6.03;3.58;;;11.50;99.90;;;;;;4954989;28;20058;-74
2021/10/05 08:21:52;;;;;;;3.15;2.15;;;11.50;99.90;;;;;;4964995;28;20022;-74
2021/10/05 08:24:19;;;;;;;1.98;1.88;;;11.60;99.90;;;;;;4959875;28;20210;-74
2021/10/05 08:26:45;;;;;;;2.58;1.90;;;11.70;99.90;;;;;;4954816;28;20482;-77
2021/10/05 08:29:10;;;;;;;1.98;1.80;;;11.70;99.90;;;;;;4954858;28;20042;-74
2021/10/05 08:31:36;;;;;;;19.20;8.30;;;11.70;99.90;;;;;;4966587;28;20035;-74
2021/10/05 08:34:01;;;;;;;2.78;2.53;;;11.80;99.90;;;;;;4986401;28;20026;-74
2021/10/05 08:36:27;;;;;;;3.72;2.55;;;11.80;99.90;;;;;;4973643;28;20612;-73
2021/10/05 08:38:53;;;;;;;10.50;5.75;;;11.80;99.90;;;;;;4971841;28;20033;-74
2021/10/05 08:41:19;;;;;;;3.10;2.20;;;11.80;99.90;;;;;;4979775;28;20389;-73
2021/10/05 08:43:45;;;;;;;2.08;1.88;;;11.70;99.90;;;;;;4988189;28;20023;-74
2021/10/05 08:46:11;;;;;;;4.50;2.50;;;11.70;99.90;;;;;;4984306;28;20026;-74
2021/10/05 08:48:37;;;;;;;6.03;3.53;;;11.70;99.90;;;;;;4958965;28;20024;-74
2021/10/05 08:51:04;;;;;;;7.07;4.78;;;11.70;99.90;;;;;;4965320;28;20054;-74
2021/10/05 08:53:33;;;;;;;5.43;4.15;;;11.70;99.90;;;;;;4958316;28;20482;-73
2021/10/05 08:55:58;;;;;;;7.47;4.47;;;11.60;99.90;;;;;;4954233;29;20041;-74
2021/10/05 08:58:24;;;;;;;5.05;4.55;;;11.50;99.90;;;;;;4955679;28;20027;-74
2021/10/05 09:00:53;;;;;;;6.30;5.70;;;11.50;99.90;;;;;;4955111;28;20106;-74
2021/10/05 09:03:24;;;;;;;7.88;6.38;;;11.60;99.90;;;;;;4955501;29;20034;-74
2021/10/05 09:05:50;;;;;;;6.50;5.30;;;11.60;99.90;;;;;;4955399;29;20389;-74
2021/10/05 09:08:23;;;;;;;7.10;5.57;;;11.50;99.90;;;;;;4973244;28;20400;-74
2021/10/05 09:11:01;;;;;;;10.70;7.13;;;11.50;99.90;;;;;;4974540;28;20031;-74
2021/10/05 09:13:39;;;;;;;9.10;7.53;;;11.50;99.90;;;;;;4967236;28;20506;-74
2021/10/05 09:16:21;;;;;;;9.05;7.70;;;11.50;99.90;;;;;;4970760;28;20075;-74
2021/10/05 09:18:51;;;;;;;9.80;8.07;;;11.40;99.90;;;;;;4974578;28;20030;-74
2021/10/05 09:21:17;;;;;;;10.75;7.45;;;11.40;99.90;;;;;;4969110;28;20031;-74
2021/10/05 09:24:19;;;;;;;9.15;6.78;;;11.50;99.90;;;;;;4954989;29;20058;-74
2021/10/05 09:26:57;;;;;;;11.15;6.65;;;11.40;99.90;;;;;;4953683;28;20031;-74
2021/10/05 09:29:30;;;;;;;8.25;6.53;;;11.40;99.90;;;;;;4955052;28;20031;-74
2021/10/05 09:31:57;;;;;;;6.30;5.03;;;11.60;99.90;;;;;;4954626;28;20028;-74
2021/10/05 09:34:50;;;;;;;5.28;4.65;;;11.60;99.90;;;;;;4973551;28;20085;-75
2021/10/05 09:37:20;;;;;;;5.03;4.00;;;11.60;99.90;;;;;;4972879;28;20070;-74
2021/10/05 09:39:50;;;;;;;4.28;3.78;;;11.50;99.90;;;;;;4974170;28;20111;-74
2021/10/05 09:42:26;;;;;;;4.05;3.60;;;11.60;99.90;;;;;;4973810;28;20501;-74
2021/10/05 09:45:04;;;;;;;4.53;4.13;;;11.60;99.90;;;;;;4986226;28;20030;-74
2021/10/05 09:47:30;;;;;;;6.40;4.88;;;11.40;99.90;;;;;;4973938;28;20094;-74
2021/10/05 09:49:55;;;;;;;6.22;5.45;;;11.40;99.90;;;;;;4972629;28;20485;-74
2021/10/05 09:52:21;;;;;;;7.60;6.80;;;11.40;99.90;;;;;;4965335;28;20371;-74
2021/10/05 09:54:47;;;;;;;9.23;6.90;;;11.40;99.90;;;;;;4953281;28;20039;-74
2021/10/05 09:57:13;;;;;;;8.43;6.88;;;11.60;99.90;;;;;;4961267;28;20393;-74
2021/10/05 09:59:39;;;;;;;9.38;7.90;;;11.70;99.90;;;;;;4972896;28;20389;-74
2021/10/05 10:02:05;;;;;;;10.38;7.05;;;11.80;99.90;;;;;;4961327;28;20026;-74
2021/10/05 10:04:31;;;;;;;9.00;7.30;;;11.90;99.90;;;;;;4972336;28;20029;-74
2021/10/05 10:06:59;;;;;;;11.82;7.85;;;11.80;99.90;;;;;;4973589;28;20251;-74
2021/10/05 10:09:25;;;;;;;8.32;6.60;;;11.80;99.90;;;;;;4973487;28;20078;-74
2021/10/05 10:11:51;;;;;;;8.18;6.45;;;11.80;99.90;;;;;;4973395;28;20026;-74
2021/10/05 10:14:20;;;;;;;8.38;6.28;;;11.70;99.90;;;;;;4973414;28;20031;-74
2021/10/05 10:16:48;;;;;;;7.25;6.22;;;11.60;99.90;;;;;;4972221;28;20045;-74
2021/10/05 10:19:25;;;;;;;6.78;5.28;;;11.70;99.90;;;;;;4973379;28;20023;-74
2021/10/05 10:21:51;;;;;;;8.60;6.80;;;11.60;99.90;;;;;;4973290;28;20031;-73
2021/10/05 10:24:18;;;;;;;7.15;5.75;;;11.70;99.90;;;;;;4973231;28;20115;-73
2021/10/05 10:26:51;;;;;;;7.10;5.20;;;11.70;99.90;;;;;;4963428;28;20019;-73
2021/10/05 10:29:30;;;;;;;4.70;4.05;;;11.70;99.90;;;;;;4953882;28;20050;-73
2021/10/05 10:31:56;;;;;;;5.75;4.03;;;11.70;99.90;;;;;;4952533;29;20051;-73
2021/10/05 10:34:23;;;;;;;5.00;4.25;;;11.80;99.90;;;;;;4959664;28;20436;-75
2021/10/05 10:36:49;;;;;;;4.63;4.22;;;11.90;99.90;;;;;;4959400;28;20481;-75
2021/10/05 10:39:18;;;;;;;4.75;3.55;;;11.90;99.90;;;;;;4971448;28;20373;-73
2021/10/05 10:41:57;;;;;;;3.47;3.17;;;12.00;99.90;;;;;;4960088;28;20046;-75
2021/10/05 10:44:32;;;;;;;4.22;3.13;;;12.10;99.90;;;;;;4970175;28;20022;-75
2021/10/05 10:47:14;;;;;;;3.33;2.88;;;12.00;99.90;;;;;;4960560;28;20027;-75
2021/10/05 10:49:51;;;;;;;3.05;2.75;;;11.90;99.90;;;;;;4956284;28;20502;-75
2021/10/05 10:52:23;;;;;;;3.78;2.47;;;12.00;99.90;;;;;;4966279;28;20038;-75
2021/10/05 10:54:54;;;;;;;3.58;2.30;;;12.00;99.90;;;;;;4959224;28;20023;-75
2021/10/05 10:57:34;;;;;;;2.72;2.53;;;12.00;99.90;;;;;;4963263;28;20033;-75
2021/10/05 11:00:16;;;;;;;3.00;2.40;;;12.10;99.90;;;;;;4960683;28;20034;-75
2021/10/05 11:02:47;;;;;;;3.30;3.03;;;12.10;99.90;;;;;;4971538;28;20026;-75
2021/10/05 11:05:13;;;;;;;3.08;2.83;;;11.90;99.90;;;;;;4973044;28;20026;-75
2021/10/05 11:07:39;;;;;;;2.95;2.63;;;11.90;99.90;;;;;;4971944;28;20023;-75
2021/10/05 11:10:07;;;;;;;3.00;2.80;;;11.80;99.90;;;;;;4967891;28;20155;-76
2021/10/05 11:12:39;;;;;;;3.30;3.00;;;11.90;99.90;;;;;;4957207;28;20054;-75
2021/10/05 11:15:08;;;;;;;2.85;2.47;;;12.00;99.90;;;;;;4965102;28;20481;-75
2021/10/05 11:17:35;;;;;;;2.92;2.72;;;12.00;99.90;;;;;;4962320;28;20061;-75
2021/10/05 11:20:06;;;;;;;4.05;2.70;;;12.00;99.90;;;;;;4957392;29;20039;-75
2021/10/05 11:22:32;;;;;;;3.63;2.80;;;12.00;99.90;;;;;;4957012;28;20110;-75
2021/10/05 11:24:58;;;;;;;3.03;2.55;;;12.10;99.90;;;;;;4956117;29;20028;-75
2021/10/05 11:27:25;;;;;;;3.20;2.20;;;12.20;99.90;;;;;;4970147;28;20081;-75
2021/10/05 11:29:52;;;;;;;2.45;2.25;;;12.30;99.90;;;;;;4955960;29;20497;-75
2021/10/05 11:32:19;;;;;;;2.67;2.47;;;12.30;99.90;;;;;;4956846;28;20039;-75
2021/10/05 11:34:48;;;;;;;4.13;2.40;;;12.30;99.90;;;;;;4965782;28;20103;-75
2021/10/05 11:37:16;;;;;;;2.63;2.42;;;12.50;99.90;;;;;;4959304;28;21520;-75
2021/10/05 11:39:43;;;;;;;2.10;1.67;;;12.70;99.90;;;;;;4957099;28;20042;-75
2021/10/05 11:42:12;;;;;;;4.28;2.30;;;12.80;99.90;;;;;;4968346;28;20027;-75
2021/10/05 11:44:53;;;;;;;2.83;2.22;;;12.80;99.90;;;;;;4976048;28;20027;-75
2021/10/05 11:47:21;;;;;;;2.25;2.05;;;12.90;99.90;;;;;;4958464;28;20023;-75
2021/10/05 11:50:00;;;;;;;2.20;1.98;;;13.00;99.90;;;;;;4955584;28;20062;-75
2021/10/05 11:52:29;;;;;;;2.58;2.00;;;13.00;99.90;;;;;;4962501;28;20035;-75
2021/10/05 11:54:56;;;;;;;3.70;1.85;;;13.00;99.90;;;;;;4956884;28;20105;-75
2021/10/05 11:57:25;;;;;;;2.13;1.63;;;13.10;99.90;;;;;;4956627;28;20479;-75
2021/10/05 11:59:51;;;;;;;4.50;1.98;;;13.00;99.90;;;;;;4956472;28;20027;-75
2021/10/05 12:02:22;;;;;;;4.43;2.28;;;13.20;99.90;;;;;;4956371;29;20490;-75
2021/10/05 12:04:53;;;;;;;2.10;1.90;;;13.30;99.90;;;;;;4970944;28;20035;-73
2021/10/05 12:07:20;;;;;;;1.90;1.80;;;13.30;99.90;;;;;;4966244;28;20092;-75
2021/10/05 12:10:01;;;;;;;3.55;2.28;;;13.40;99.90;;;;;;4969675;28;20055;-75
2021/10/05 12:12:31;;;;;;;2.33;2.13;;;13.20;99.90;;;;;;4954828;28;20086;-75
2021/10/05 12:15:02;;;;;;;2.92;2.33;;;13.30;99.90;;;;;;4962137;28;20312;-75
2021/10/05 12:17:30;;;;;;;2.95;2.50;;;13.30;99.90;;;;;;4975651;28;20048;-75
2021/10/05 12:19:58;;;;;;;3.72;2.67;;;13.40;99.90;;;;;;4956267;29;20489;-75
2021/10/05 12:22:29;;;;;;;2.70;2.42;;;13.40;99.90;;;;;;4954287;29;20038;-75
2021/10/05 12:25:05;;;;;;;3.30;3.05;;;13.40;99.90;;;;;;4963848;28;20023;-75
2021/10/05 12:27:30;;;;;;;3.60;3.30;;;13.70;99.90;;;;;;4975453;28;20110;-79
2021/10/05 12:30:00;;;;;;;4.05;3.33;;;13.90;99.90;;;;;;4966987;28;20545;-76
2021/10/05 12:32:33;;;;;;;3.85;3.20;;;13.70;99.90;;;;;;4958678;28;20034;-76
2021/10/05 12:34:59;;;;;;;5.53;4.10;;;13.70;99.90;;;;;;4965249;28;20459;-75
2021/10/05 12:37:29;;;;;;;3.70;3.35;;;13.60;99.90;;;;;;4972620;28;20034;-75
2021/10/05 12:39:58;;;;;;;4.13;3.83;;;13.60;99.90;;;;;;4963554;28;20027;-76
2021/10/05 12:42:35;;;;;;;4.10;3.80;;;13.50;99.90;;;;;;4968750;28;20027;-75